sensor_id;sensor_type;location;lat;lon;timestamp;P1;durP1;ratioP1;P2;durP2;ratioP2
60851;SDS011;48553;50.766;2.900;2023-09-19T00:00:25;11.38;;;1.90;;
60851;SDS011;48553;50.766;2.900;2023-09-19T00:03:27;9.40;;;1.80;;
60851;SDS011;48553;50.766;2.900;2023-09-19T00:06:29;9.52;;;1.83;;
60851;SDS011;48553;50.766;2.900;2023-09-19T00:09:31;6.88;;;1.58;;
60851;SDS011;48553;50.766;2.900;2023-09-19T00:12:37;8.13;;;1.90;;
60851;SDS011;48553;50.766;2.900;2023-09-19T00:15:38;9.25;;;1.92;;
60851;SDS011;48553;50.766;2.900;2023-09-19T00:18:41;9.20;;;1.88;;
60851;SDS011;48553;50.766;2.900;2023-09-19T00:21:42;8.13;;;1.90;;
60851;SDS011;48553;50.766;2.900;2023-09-19T00:24:43;7.55;;;1.70;;
60851;SDS011;48553;50.766;2.900;2023-09-19T00:27:44;7.72;;;1.63;;
60851;SDS011;48553;50.766;2.900;2023-09-19T00:30:45;9.90;;;1.90;;
60851;SDS011;48553;50.766;2.900;2023-09-19T00:33:50;7.32;;;1.73;;
60851;SDS011;48553;50.766;2.900;2023-09-19T00:36:51;7.97;;;1.67;;
60851;SDS011;48553;50.766;2.900;2023-09-19T00:39:53;7.95;;;1.60;;
60851;SDS011;48553;50.766;2.900;2023-09-19T00:42:53;8.50;;;1.63;;
60851;SDS011;48553;50.766;2.900;2023-09-19T00:46:00;6.80;;;1.60;;
60851;SDS011;48553;50.766;2.900;2023-09-19T00:49:03;6.50;;;1.70;;
60851;SDS011;48553;50.766;2.900;2023-09-19T00:52:04;11.02;;;1.80;;
60851;SDS011;48553;50.766;2.900;2023-09-19T00:55:05;7.88;;;1.77;;
60851;SDS011;48553;50.766;2.900;2023-09-19T00:58:07;8.35;;;1.33;;
60851;SDS011;48553;50.766;2.900;2023-09-19T01:01:08;6.35;;;1.85;;
60851;SDS011;48553;50.766;2.900;2023-09-19T01:04:08;9.52;;;1.77;;
60851;SDS011;48553;50.766;2.900;2023-09-19T01:07:09;7.22;;;1.85;;
60851;SDS011;48553;50.766;2.900;2023-09-19T01:10:10;7.22;;;1.70;;
60851;SDS011;48553;50.766;2.900;2023-09-19T01:16:35;8.30;;;1.65;;
60851;SDS011;48553;50.766;2.900;2023-09-19T01:23:17;8.88;;;2.00;;
60851;SDS011;48553;50.766;2.900;2023-09-19T01:30:04;8.50;;;1.70;;
60851;SDS011;48553;50.766;2.900;2023-09-19T01:33:08;7.93;;;1.50;;
60851;SDS011;48553;50.766;2.900;2023-09-19T01:36:10;7.95;;;1.42;;
60851;SDS011;48553;50.766;2.900;2023-09-19T01:39:11;4.78;;;1.52;;
60851;SDS011;48553;50.766;2.900;2023-09-19T01:45:47;6.22;;;1.63;;
60851;SDS011;48553;50.766;2.900;2023-09-19T01:52:04;8.45;;;1.42;;
60851;SDS011;48553;50.766;2.900;2023-09-19T01:55:10;5.68;;;1.67;;
60851;SDS011;48553;50.766;2.900;2023-09-19T02:01:30;6.47;;;1.50;;
60851;SDS011;48553;50.766;2.900;2023-09-19T02:04:32;9.57;;;1.60;;
60851;SDS011;48553;50.766;2.900;2023-09-19T02:07:34;11.48;;;1.77;;
60851;SDS011;48553;50.766;2.900;2023-09-19T02:10:37;8.07;;;1.38;;
60851;SDS011;48553;50.766;2.900;2023-09-19T02:13:38;9.60;;;1.70;;
60851;SDS011;48553;50.766;2.900;2023-09-19T02:16:39;6.20;;;1.50;;
60851;SDS011;48553;50.766;2.900;2023-09-19T02:19:40;7.53;;;1.50;;
60851;SDS011;48553;50.766;2.900;2023-09-19T02:22:41;8.10;;;1.70;;
60851;SDS011;48553;50.766;2.900;2023-09-19T02:25:42;8.20;;;1.70;;
60851;SDS011;48553;50.766;2.900;2023-09-19T02:28:43;9.75;;;1.70;;
60851;SDS011;48553;50.766;2.900;2023-09-19T02:31:45;6.65;;;1.50;;
60851;SDS011;48553;50.766;2.900;2023-09-19T02:34:46;9.40;;;1.52;;
60851;SDS011;48553;50.766;2.900;2023-09-19T02:37:46;7.07;;;1.42;;
60851;SDS011;48553;50.766;2.900;2023-09-19T02:40:47;6.35;;;1.30;;
60851;SDS011;48553;50.766;2.900;2023-09-19T02:43:48;7.93;;;1.48;;
60851;SDS011;48553;50.766;2.900;2023-09-19T02:46:48;10.15;;;1.70;;
60851;SDS011;48553;50.766;2.900;2023-09-19T02:49:48;8.10;;;1.77;;
60851;SDS011;48553;50.766;2.900;2023-09-19T02:52:49;7.03;;;1.20;;
60851;SDS011;48553;50.766;2.900;2023-09-19T02:55:49;8.38;;;1.58;;
60851;SDS011;48553;50.766;2.900;2023-09-19T02:58:52;9.20;;;1.80;;
60851;SDS011;48553;50.766;2.900;2023-09-19T03:01:53;8.32;;;1.73;;
60851;SDS011;48553;50.766;2.900;2023-09-19T03:04:54;7.28;;;1.50;;
60851;SDS011;48553;50.766;2.900;2023-09-19T03:07:56;8.35;;;1.70;;
60851;SDS011;48553;50.766;2.900;2023-09-19T03:11:00;9.47;;;1.50;;
60851;SDS011;48553;50.766;2.900;2023-09-19T03:14:00;6.38;;;1.40;;
60851;SDS011;48553;50.766;2.900;2023-09-19T03:17:01;7.57;;;1.50;;
60851;SDS011;48553;50.766;2.900;2023-09-19T03:20:05;6.70;;;1.63;;
60851;SDS011;48553;50.766;2.900;2023-09-19T03:23:08;10.70;;;2.00;;
60851;SDS011;48553;50.766;2.900;2023-09-19T03:26:09;8.40;;;1.52;;
60851;SDS011;48553;50.766;2.900;2023-09-19T03:29:09;8.18;;;1.40;;
60851;SDS011;48553;50.766;2.900;2023-09-19T03:32:10;7.40;;;1.38;;
60851;SDS011;48553;50.766;2.900;2023-09-19T03:35:11;9.90;;;1.70;;
60851;SDS011;48553;50.766;2.900;2023-09-19T03:38:13;7.15;;;1.50;;
60851;SDS011;48553;50.766;2.900;2023-09-19T03:41:14;9.90;;;1.55;;
60851;SDS011;48553;50.766;2.900;2023-09-19T03:44:17;6.85;;;1.60;;
60851;SDS011;48553;50.766;2.900;2023-09-19T03:47:18;10.45;;;1.70;;
60851;SDS011;48553;50.766;2.900;2023-09-19T03:50:21;10.30;;;1.70;;
60851;SDS011;48553;50.766;2.900;2023-09-19T03:53:21;9.82;;;1.60;;
60851;SDS011;48553;50.766;2.900;2023-09-19T03:56:22;7.07;;;1.50;;
60851;SDS011;48553;50.766;2.900;2023-09-19T03:59:22;9.55;;;1.60;;
60851;SDS011;48553;50.766;2.900;2023-09-19T04:02:23;9.02;;;1.80;;
60851;SDS011;48553;50.766;2.900;2023-09-19T04:05:24;10.88;;;1.70;;
60851;SDS011;48553;50.766;2.900;2023-09-19T04:08:25;10.90;;;1.52;;
60851;SDS011;48553;50.766;2.900;2023-09-19T04:11:25;7.70;;;1.70;;
60851;SDS011;48553;50.766;2.900;2023-09-19T04:14:25;10.55;;;1.90;;
60851;SDS011;48553;50.766;2.900;2023-09-19T04:17:26;9.35;;;1.45;;
60851;SDS011;48553;50.766;2.900;2023-09-19T04:20:26;7.38;;;1.63;;
60851;SDS011;48553;50.766;2.900;2023-09-19T04:23:27;9.10;;;1.50;;
60851;SDS011;48553;50.766;2.900;2023-09-19T04:26:28;8.80;;;1.58;;
60851;SDS011;48553;50.766;2.900;2023-09-19T04:29:28;7.50;;;1.77;;
60851;SDS011;48553;50.766;2.900;2023-09-19T04:32:29;8.40;;;1.60;;
60851;SDS011;48553;50.766;2.900;2023-09-19T04:35:32;5.80;;;1.48;;
60851;SDS011;48553;50.766;2.900;2023-09-19T04:38:33;10.55;;;1.88;;
60851;SDS011;48553;50.766;2.900;2023-09-19T04:41:33;10.77;;;1.42;;
60851;SDS011;48553;50.766;2.900;2023-09-19T04:44:34;6.85;;;1.40;;
60851;SDS011;48553;50.766;2.900;2023-09-19T04:47:34;7.40;;;1.65;;
60851;SDS011;48553;50.766;2.900;2023-09-19T04:50:34;6.38;;;1.27;;
60851;SDS011;48553;50.766;2.900;2023-09-19T04:53:35;9.95;;;1.50;;
60851;SDS011;48553;50.766;2.900;2023-09-19T04:56:35;10.32;;;1.73;;
60851;SDS011;48553;50.766;2.900;2023-09-19T04:59:36;6.68;;;1.33;;
60851;SDS011;48553;50.766;2.900;2023-09-19T05:02:36;8.57;;;1.50;;
60851;SDS011;48553;50.766;2.900;2023-09-19T05:05:37;6.40;;;1.40;;
60851;SDS011;48553;50.766;2.900;2023-09-19T05:08:38;8.90;;;2.00;;
60851;SDS011;48553;50.766;2.900;2023-09-19T05:11:39;6.15;;;1.50;;
60851;SDS011;48553;50.766;2.900;2023-09-19T05:14:39;8.85;;;1.85;;
60851;SDS011;48553;50.766;2.900;2023-09-19T05:17:40;7.10;;;1.40;;
60851;SDS011;48553;50.766;2.900;2023-09-19T05:20:41;6.65;;;1.48;;
60851;SDS011;48553;50.766;2.900;2023-09-19T05:23:42;8.30;;;1.55;;
60851;SDS011;48553;50.766;2.900;2023-09-19T05:26:42;7.45;;;1.60;;
60851;SDS011;48553;50.766;2.900;2023-09-19T05:29:46;6.10;;;1.40;;
60851;SDS011;48553;50.766;2.900;2023-09-19T05:32:46;7.45;;;1.50;;
60851;SDS011;48553;50.766;2.900;2023-09-19T05:35:50;8.80;;;1.60;;
60851;SDS011;48553;50.766;2.900;2023-09-19T05:38:51;6.78;;;1.58;;
60851;SDS011;48553;50.766;2.900;2023-09-19T05:41:53;9.65;;;1.90;;
60851;SDS011;48553;50.766;2.900;2023-09-19T05:44:55;7.53;;;1.65;;
60851;SDS011;48553;50.766;2.900;2023-09-19T05:47:55;7.43;;;1.42;;
60851;SDS011;48553;50.766;2.900;2023-09-19T05:51:01;7.78;;;1.50;;
60851;SDS011;48553;50.766;2.900;2023-09-19T05:54:01;7.75;;;1.10;;
60851;SDS011;48553;50.766;2.900;2023-09-19T05:57:02;9.13;;;1.50;;
60851;SDS011;48553;50.766;2.900;2023-09-19T06:00:02;6.93;;;1.27;;
60851;SDS011;48553;50.766;2.900;2023-09-19T06:03:08;6.82;;;1.58;;
60851;SDS011;48553;50.766;2.900;2023-09-19T06:06:09;8.00;;;1.60;;
60851;SDS011;48553;50.766;2.900;2023-09-19T06:09:10;8.68;;;1.50;;
60851;SDS011;48553;50.766;2.900;2023-09-19T06:12:10;6.68;;;1.30;;
60851;SDS011;48553;50.766;2.900;2023-09-19T06:15:13;8.10;;;1.60;;
60851;SDS011;48553;50.766;2.900;2023-09-19T06:18:16;6.07;;;1.30;;
60851;SDS011;48553;50.766;2.900;2023-09-19T06:21:19;10.52;;;1.67;;
60851;SDS011;48553;50.766;2.900;2023-09-19T06:24:20;9.77;;;1.63;;
60851;SDS011;48553;50.766;2.900;2023-09-19T06:27:21;7.45;;;1.75;;
60851;SDS011;48553;50.766;2.900;2023-09-19T06:30:22;10.88;;;2.13;;
60851;SDS011;48553;50.766;2.900;2023-09-19T06:33:24;9.23;;;1.90;;
60851;SDS011;48553;50.766;2.900;2023-09-19T06:36:24;9.00;;;2.08;;
60851;SDS011;48553;50.766;2.900;2023-09-19T06:39:25;8.60;;;2.08;;
60851;SDS011;48553;50.766;2.900;2023-09-19T06:42:26;8.30;;;1.80;;
60851;SDS011;48553;50.766;2.900;2023-09-19T06:45:28;14.82;;;2.20;;
60851;SDS011;48553;50.766;2.900;2023-09-19T06:48:28;9.82;;;2.03;;
60851;SDS011;48553;50.766;2.900;2023-09-19T06:51:29;10.07;;;1.83;;
60851;SDS011;48553;50.766;2.900;2023-09-19T06:54:30;10.73;;;2.00;;
60851;SDS011;48553;50.766;2.900;2023-09-19T06:57:31;8.73;;;1.80;;
60851;SDS011;48553;50.766;2.900;2023-09-19T07:00:31;7.20;;;1.70;;
60851;SDS011;48553;50.766;2.900;2023-09-19T07:03:33;8.40;;;1.42;;
60851;SDS011;48553;50.766;2.900;2023-09-19T07:06:34;6.35;;;1.45;;
60851;SDS011;48553;50.766;2.900;2023-09-19T07:09:35;8.27;;;1.55;;
60851;SDS011;48553;50.766;2.900;2023-09-19T07:12:37;8.18;;;1.60;;
60851;SDS011;48553;50.766;2.900;2023-09-19T07:15:38;8.05;;;1.52;;
60851;SDS011;48553;50.766;2.900;2023-09-19T07:18:39;9.10;;;1.73;;
60851;SDS011;48553;50.766;2.900;2023-09-19T07:21:40;8.80;;;1.55;;
60851;SDS011;48553;50.766;2.900;2023-09-19T07:24:40;6.18;;;1.30;;
60851;SDS011;48553;50.766;2.900;2023-09-19T07:27:41;9.25;;;1.67;;
60851;SDS011;48553;50.766;2.900;2023-09-19T07:30:41;7.38;;;1.63;;
60851;SDS011;48553;50.766;2.900;2023-09-19T07:33:41;7.68;;;1.40;;
60851;SDS011;48553;50.766;2.900;2023-09-19T07:36:42;8.40;;;1.50;;
60851;SDS011;48553;50.766;2.900;2023-09-19T07:39:43;12.07;;;1.40;;
60851;SDS011;48553;50.766;2.900;2023-09-19T07:42:44;7.30;;;1.30;;
60851;SDS011;48553;50.766;2.900;2023-09-19T07:45:46;6.80;;;1.38;;
60851;SDS011;48553;50.766;2.900;2023-09-19T07:48:48;9.80;;;1.38;;
60851;SDS011;48553;50.766;2.900;2023-09-19T07:51:48;10.25;;;1.77;;
60851;SDS011;48553;50.766;2.900;2023-09-19T07:54:49;10.57;;;1.63;;
60851;SDS011;48553;50.766;2.900;2023-09-19T07:57:49;10.52;;;1.75;;
60851;SDS011;48553;50.766;2.900;2023-09-19T08:00:50;9.10;;;1.70;;
60851;SDS011;48553;50.766;2.900;2023-09-19T08:03:51;6.75;;;1.45;;
60851;SDS011;48553;50.766;2.900;2023-09-19T08:06:51;10.77;;;1.65;;
60851;SDS011;48553;50.766;2.900;2023-09-19T08:09:52;7.30;;;1.38;;
60851;SDS011;48553;50.766;2.900;2023-09-19T08:12:52;7.72;;;1.40;;
60851;SDS011;48553;50.766;2.900;2023-09-19T08:15:58;7.43;;;1.58;;
60851;SDS011;48553;50.766;2.900;2023-09-19T08:18:58;9.07;;;1.33;;
60851;SDS011;48553;50.766;2.900;2023-09-19T08:21:58;8.68;;;1.30;;
60851;SDS011;48553;50.766;2.900;2023-09-19T08:24:59;7.32;;;1.23;;
60851;SDS011;48553;50.766;2.900;2023-09-19T08:27:59;6.47;;;1.25;;
60851;SDS011;48553;50.766;2.900;2023-09-19T08:31:02;7.88;;;1.48;;
60851;SDS011;48553;50.766;2.900;2023-09-19T08:34:05;5.78;;;1.30;;
60851;SDS011;48553;50.766;2.900;2023-09-19T08:37:06;7.28;;;1.50;;
60851;SDS011;48553;50.766;2.900;2023-09-19T08:40:07;8.15;;;1.40;;
60851;SDS011;48553;50.766;2.900;2023-09-19T08:43:09;7.03;;;1.17;;
60851;SDS011;48553;50.766;2.900;2023-09-19T08:46:11;7.07;;;1.30;;
60851;SDS011;48553;50.766;2.900;2023-09-19T08:49:59;6.60;;;1.45;;
60851;SDS011;48553;50.766;2.900;2023-09-19T08:52:58;8.40;;;1.27;;
60851;SDS011;48553;50.766;2.900;2023-09-19T08:56:01;7.05;;;1.27;;
60851;SDS011;48553;50.766;2.900;2023-09-19T08:59:03;6.03;;;1.20;;
60851;SDS011;48553;50.766;2.900;2023-09-19T09:02:04;5.40;;;1.00;;
60851;SDS011;48553;50.766;2.900;2023-09-19T09:05:09;4.63;;;1.27;;
60851;SDS011;48553;50.766;2.900;2023-09-19T09:08:10;7.50;;;1.30;;
60851;SDS011;48553;50.766;2.900;2023-09-19T09:11:12;5.18;;;1.50;;
60851;SDS011;48553;50.766;2.900;2023-09-19T09:14:13;3.28;;;0.95;;
60851;SDS011;48553;50.766;2.900;2023-09-19T09:17:13;4.38;;;1.00;;
60851;SDS011;48553;50.766;2.900;2023-09-19T09:20:14;5.72;;;0.93;;
60851;SDS011;48553;50.766;2.900;2023-09-19T09:23:14;4.97;;;1.00;;
60851;SDS011;48553;50.766;2.900;2023-09-19T09:26:15;5.57;;;1.20;;
60851;SDS011;48553;50.766;2.900;2023-09-19T09:29:16;5.05;;;1.15;;
60851;SDS011;48553;50.766;2.900;2023-09-19T09:32:37;5.40;;;1.00;;
60851;SDS011;48553;50.766;2.900;2023-09-19T09:39:00;4.05;;;1.00;;
60851;SDS011;48553;50.766;2.900;2023-09-19T09:42:28;4.60;;;1.00;;
60851;SDS011;48553;50.766;2.900;2023-09-19T09:45:32;5.45;;;1.17;;
60851;SDS011;48553;50.766;2.900;2023-09-19T09:48:33;3.40;;;0.85;;
60851;SDS011;48553;50.766;2.900;2023-09-19T09:51:39;4.43;;;0.93;;
60851;SDS011;48553;50.766;2.900;2023-09-19T09:54:58;3.22;;;0.70;;
60851;SDS011;48553;50.766;2.900;2023-09-19T09:58:16;4.57;;;1.08;;
60851;SDS011;48553;50.766;2.900;2023-09-19T10:01:18;3.28;;;0.95;;
60851;SDS011;48553;50.766;2.900;2023-09-19T10:04:27;2.88;;;0.80;;
60851;SDS011;48553;50.766;2.900;2023-09-19T10:07:36;3.70;;;0.80;;
60851;SDS011;48553;50.766;2.900;2023-09-19T10:10:39;2.80;;;0.80;;
60851;SDS011;48553;50.766;2.900;2023-09-19T10:13:42;3.95;;;0.88;;
60851;SDS011;48553;50.766;2.900;2023-09-19T10:16:46;3.97;;;0.80;;
60851;SDS011;48553;50.766;2.900;2023-09-19T10:19:54;4.85;;;0.70;;
60851;SDS011;48553;50.766;2.900;2023-09-19T10:22:59;4.20;;;0.90;;
60851;SDS011;48553;50.766;2.900;2023-09-19T10:26:01;5.50;;;0.98;;
60851;SDS011;48553;50.766;2.900;2023-09-19T10:29:01;3.22;;;0.52;;
60851;SDS011;48553;50.766;2.900;2023-09-19T10:32:07;2.60;;;0.70;;
60851;SDS011;48553;50.766;2.900;2023-09-19T10:35:09;5.78;;;0.80;;
60851;SDS011;48553;50.766;2.900;2023-09-19T10:38:13;3.72;;;0.93;;
60851;SDS011;48553;50.766;2.900;2023-09-19T10:41:19;2.25;;;0.60;;
60851;SDS011;48553;50.766;2.900;2023-09-19T10:44:25;3.75;;;0.73;;
60851;SDS011;48553;50.766;2.900;2023-09-19T10:47:26;6.10;;;1.08;;
60851;SDS011;48553;50.766;2.900;2023-09-19T10:50:27;5.80;;;0.90;;
60851;SDS011;48553;50.766;2.900;2023-09-19T10:53:39;7.25;;;1.05;;
60851;SDS011;48553;50.766;2.900;2023-09-19T10:56:55;4.70;;;1.02;;
60851;SDS011;48553;50.766;2.900;2023-09-19T11:06:19;2.75;;;1.00;;
60851;SDS011;48553;50.766;2.900;2023-09-19T11:09:19;4.60;;;1.00;;
60851;SDS011;48553;50.766;2.900;2023-09-19T11:12:47;4.03;;;0.90;;
60851;SDS011;48553;50.766;2.900;2023-09-19T11:18:58;3.58;;;1.00;;
60851;SDS011;48553;50.766;2.900;2023-09-19T11:22:04;5.03;;;0.90;;
60851;SDS011;48553;50.766;2.900;2023-09-19T11:28:41;6.57;;;1.00;;
60851;SDS011;48553;50.766;2.900;2023-09-19T11:31:42;4.13;;;0.90;;
60851;SDS011;48553;50.766;2.900;2023-09-19T11:34:45;5.53;;;1.20;;
60851;SDS011;48553;50.766;2.900;2023-09-19T11:40:47;3.13;;;0.90;;
60851;SDS011;48553;50.766;2.900;2023-09-19T11:47:26;6.93;;;1.20;;
60851;SDS011;48553;50.766;2.900;2023-09-19T11:50:27;5.40;;;1.20;;
60851;SDS011;48553;50.766;2.900;2023-09-19T11:53:31;5.10;;;1.17;;
60851;SDS011;48553;50.766;2.900;2023-09-19T11:56:33;3.40;;;1.10;;
60851;SDS011;48553;50.766;2.900;2023-09-19T11:59:41;4.65;;;1.20;;
60851;SDS011;48553;50.766;2.900;2023-09-19T12:02:42;4.20;;;1.15;;
60851;SDS011;48553;50.766;2.900;2023-09-19T12:05:47;3.97;;;1.08;;
60851;SDS011;48553;50.766;2.900;2023-09-19T12:08:47;7.68;;;1.27;;
60851;SDS011;48553;50.766;2.900;2023-09-19T12:11:49;4.50;;;1.30;;
60851;SDS011;48553;50.766;2.900;2023-09-19T12:14:51;6.18;;;1.15;;
60851;SDS011;48553;50.766;2.900;2023-09-19T12:17:53;5.20;;;1.10;;
60851;SDS011;48553;50.766;2.900;2023-09-19T12:20:54;4.47;;;1.50;;
60851;SDS011;48553;50.766;2.900;2023-09-19T12:27:13;6.72;;;1.30;;
60851;SDS011;48553;50.766;2.900;2023-09-19T12:30:13;5.03;;;1.45;;
60851;SDS011;48553;50.766;2.900;2023-09-19T12:33:18;6.72;;;1.35;;
60851;SDS011;48553;50.766;2.900;2023-09-19T12:36:25;7.50;;;1.48;;
60851;SDS011;48553;50.766;2.900;2023-09-19T12:39:29;5.77;;;1.27;;
60851;SDS011;48553;50.766;2.900;2023-09-19T12:42:30;4.47;;;1.40;;
60851;SDS011;48553;50.766;2.900;2023-09-19T12:45:35;3.83;;;1.15;;
60851;SDS011;48553;50.766;2.900;2023-09-19T12:48:37;6.47;;;1.27;;
60851;SDS011;48553;50.766;2.900;2023-09-19T12:51:44;7.00;;;1.48;;
60851;SDS011;48553;50.766;2.900;2023-09-19T12:54:45;6.03;;;1.58;;
60851;SDS011;48553;50.766;2.900;2023-09-19T13:01:13;6.63;;;1.13;;
60851;SDS011;48553;50.766;2.900;2023-09-19T13:11:05;4.78;;;1.80;;
60851;SDS011;48553;50.766;2.900;2023-09-19T13:14:26;4.07;;;1.33;;
60851;SDS011;48553;50.766;2.900;2023-09-19T13:17:43;4.07;;;1.20;;
60851;SDS011;48553;50.766;2.900;2023-09-19T13:20:53;3.72;;;1.20;;
60851;SDS011;48553;50.766;2.900;2023-09-19T13:24:18;6.10;;;1.30;;
60851;SDS011;48553;50.766;2.900;2023-09-19T13:27:27;9.90;;;1.40;;
60851;SDS011;48553;50.766;2.900;2023-09-19T13:30:28;7.18;;;1.40;;
60851;SDS011;48553;50.766;2.900;2023-09-19T13:33:32;5.43;;;1.35;;
60851;SDS011;48553;50.766;2.900;2023-09-19T13:36:33;7.07;;;1.40;;
60851;SDS011;48553;50.766;2.900;2023-09-19T13:39:33;5.85;;;1.60;;
60851;SDS011;48553;50.766;2.900;2023-09-19T13:42:34;5.25;;;1.42;;
60851;SDS011;48553;50.766;2.900;2023-09-19T13:45:36;6.07;;;1.33;;
60851;SDS011;48553;50.766;2.900;2023-09-19T13:48:37;8.07;;;1.58;;
60851;SDS011;48553;50.766;2.900;2023-09-19T13:51:38;9.00;;;1.65;;
60851;SDS011;48553;50.766;2.900;2023-09-19T13:54:39;5.20;;;1.70;;
60851;SDS011;48553;50.766;2.900;2023-09-19T13:57:39;7.15;;;1.58;;
60851;SDS011;48553;50.766;2.900;2023-09-19T14:00:40;8.93;;;2.10;;
60851;SDS011;48553;50.766;2.900;2023-09-19T14:03:41;6.88;;;1.67;;
60851;SDS011;48553;50.766;2.900;2023-09-19T14:06:46;7.97;;;1.65;;
60851;SDS011;48553;50.766;2.900;2023-09-19T14:09:47;6.35;;;1.85;;
60851;SDS011;48553;50.766;2.900;2023-09-19T14:12:47;9.68;;;2.35;;
60851;SDS011;48553;50.766;2.900;2023-09-19T14:15:47;5.80;;;1.75;;
60851;SDS011;48553;50.766;2.900;2023-09-19T14:18:48;6.10;;;1.65;;
60851;SDS011;48553;50.766;2.900;2023-09-19T14:21:48;8.02;;;1.55;;
60851;SDS011;48553;50.766;2.900;2023-09-19T14:24:51;6.22;;;1.60;;
60851;SDS011;48553;50.766;2.900;2023-09-19T14:27:52;6.93;;;1.90;;
60851;SDS011;48553;50.766;2.900;2023-09-19T14:30:53;4.88;;;1.40;;
60851;SDS011;48553;50.766;2.900;2023-09-19T14:33:54;6.40;;;1.60;;
60851;SDS011;48553;50.766;2.900;2023-09-19T14:36:56;8.65;;;2.17;;
60851;SDS011;48553;50.766;2.900;2023-09-19T14:39:57;9.57;;;1.95;;
60851;SDS011;48553;50.766;2.900;2023-09-19T14:42:57;7.85;;;1.73;;
60851;SDS011;48553;50.766;2.900;2023-09-19T14:46:04;8.73;;;1.65;;
60851;SDS011;48553;50.766;2.900;2023-09-19T14:49:07;9.02;;;2.05;;
60851;SDS011;48553;50.766;2.900;2023-09-19T14:52:11;8.38;;;2.30;;
60851;SDS011;48553;50.766;2.900;2023-09-19T14:55:15;11.43;;;2.13;;
60851;SDS011;48553;50.766;2.900;2023-09-19T14:58:16;10.20;;;2.25;;
60851;SDS011;48553;50.766;2.900;2023-09-19T15:01:16;10.70;;;1.98;;
60851;SDS011;48553;50.766;2.900;2023-09-19T15:04:17;7.60;;;1.70;;
60851;SDS011;48553;50.766;2.900;2023-09-19T15:07:18;6.75;;;1.67;;
60851;SDS011;48553;50.766;2.900;2023-09-19T15:10:18;6.50;;;1.67;;
60851;SDS011;48553;50.766;2.900;2023-09-19T15:13:19;8.30;;;2.13;;
60851;SDS011;48553;50.766;2.900;2023-09-19T15:16:20;5.25;;;1.90;;
60851;SDS011;48553;50.766;2.900;2023-09-19T15:19:20;7.05;;;2.03;;
60851;SDS011;48553;50.766;2.900;2023-09-19T15:22:22;12.73;;;2.13;;
60851;SDS011;48553;50.766;2.900;2023-09-19T15:25:22;7.15;;;1.88;;
60851;SDS011;48553;50.766;2.900;2023-09-19T15:28:23;6.47;;;2.00;;
60851;SDS011;48553;50.766;2.900;2023-09-19T15:31:24;6.78;;;1.98;;
60851;SDS011;48553;50.766;2.900;2023-09-19T15:34:24;8.18;;;1.73;;
60851;SDS011;48553;50.766;2.900;2023-09-19T15:37:25;7.10;;;1.80;;
60851;SDS011;48553;50.766;2.900;2023-09-19T15:40:26;8.68;;;2.00;;
60851;SDS011;48553;50.766;2.900;2023-09-19T15:43:27;10.55;;;2.00;;
60851;SDS011;48553;50.766;2.900;2023-09-19T15:46:28;9.63;;;2.00;;
60851;SDS011;48553;50.766;2.900;2023-09-19T15:49:29;7.72;;;2.22;;
60851;SDS011;48553;50.766;2.900;2023-09-19T15:52:30;7.88;;;1.83;;
60851;SDS011;48553;50.766;2.900;2023-09-19T15:55:30;5.45;;;2.20;;
60851;SDS011;48553;50.766;2.900;2023-09-19T15:58:31;9.00;;;2.30;;
60851;SDS011;48553;50.766;2.900;2023-09-19T16:01:32;10.07;;;2.38;;
60851;SDS011;48553;50.766;2.900;2023-09-19T16:04:33;6.88;;;1.92;;
60851;SDS011;48553;50.766;2.900;2023-09-19T16:07:34;8.43;;;2.05;;
60851;SDS011;48553;50.766;2.900;2023-09-19T16:10:35;9.80;;;2.35;;
60851;SDS011;48553;50.766;2.900;2023-09-19T16:13:38;5.47;;;1.85;;
60851;SDS011;48553;50.766;2.900;2023-09-19T16:16:39;8.45;;;2.10;;
60851;SDS011;48553;50.766;2.900;2023-09-19T16:19:39;6.88;;;2.25;;
60851;SDS011;48553;50.766;2.900;2023-09-19T16:22:40;7.00;;;2.00;;
60851;SDS011;48553;50.766;2.900;2023-09-19T16:25:40;8.60;;;2.42;;
60851;SDS011;48553;50.766;2.900;2023-09-19T16:28:41;8.10;;;2.15;;
60851;SDS011;48553;50.766;2.900;2023-09-19T16:31:44;6.63;;;2.00;;
60851;SDS011;48553;50.766;2.900;2023-09-19T16:34:45;9.18;;;2.42;;
60851;SDS011;48553;50.766;2.900;2023-09-19T16:37:45;8.07;;;1.98;;
60851;SDS011;48553;50.766;2.900;2023-09-19T16:40:53;7.57;;;2.33;;
60851;SDS011;48553;50.766;2.900;2023-09-19T16:43:56;9.15;;;2.70;;
60851;SDS011;48553;50.766;2.900;2023-09-19T16:46:57;9.68;;;2.50;;
60851;SDS011;48553;50.766;2.900;2023-09-19T16:49:58;6.50;;;2.30;;
60851;SDS011;48553;50.766;2.900;2023-09-19T16:52:58;9.10;;;2.28;;
60851;SDS011;48553;50.766;2.900;2023-09-19T16:56:02;7.88;;;2.30;;
60851;SDS011;48553;50.766;2.900;2023-09-19T16:59:04;6.25;;;2.58;;
60851;SDS011;48553;50.766;2.900;2023-09-19T17:02:05;8.95;;;2.45;;
60851;SDS011;48553;50.766;2.900;2023-09-19T17:05:07;6.40;;;2.05;;
60851;SDS011;48553;50.766;2.900;2023-09-19T17:08:08;7.20;;;2.30;;
60851;SDS011;48553;50.766;2.900;2023-09-19T17:11:09;11.50;;;2.40;;
60851;SDS011;48553;50.766;2.900;2023-09-19T17:14:14;7.15;;;2.15;;
60851;SDS011;48553;50.766;2.900;2023-09-19T17:17:15;7.15;;;2.30;;
60851;SDS011;48553;50.766;2.900;2023-09-19T17:20:15;8.30;;;2.35;;
60851;SDS011;48553;50.766;2.900;2023-09-19T17:23:16;7.60;;;2.45;;
60851;SDS011;48553;50.766;2.900;2023-09-19T17:26:17;6.18;;;2.50;;
60851;SDS011;48553;50.766;2.900;2023-09-19T17:29:20;11.20;;;2.33;;
60851;SDS011;48553;50.766;2.900;2023-09-19T17:32:20;10.13;;;2.60;;
60851;SDS011;48553;50.766;2.900;2023-09-19T17:35:21;5.68;;;2.20;;
60851;SDS011;48553;50.766;2.900;2023-09-19T17:38:21;7.97;;;2.30;;
60851;SDS011;48553;50.766;2.900;2023-09-19T17:41:22;10.32;;;2.42;;
60851;SDS011;48553;50.766;2.900;2023-09-19T17:44:23;9.57;;;2.67;;
60851;SDS011;48553;50.766;2.900;2023-09-19T17:47:23;9.27;;;2.50;;
60851;SDS011;48553;50.766;2.900;2023-09-19T17:50:24;8.73;;;2.63;;
60851;SDS011;48553;50.766;2.900;2023-09-19T17:53:25;11.98;;;2.72;;
60851;SDS011;48553;50.766;2.900;2023-09-19T17:56:26;11.98;;;2.60;;
60851;SDS011;48553;50.766;2.900;2023-09-19T17:59:27;7.50;;;2.58;;
60851;SDS011;48553;50.766;2.900;2023-09-19T18:02:27;7.90;;;2.38;;
60851;SDS011;48553;50.766;2.900;2023-09-19T18:05:28;7.53;;;2.28;;
60851;SDS011;48553;50.766;2.900;2023-09-19T18:08:29;9.60;;;2.53;;
60851;SDS011;48553;50.766;2.900;2023-09-19T18:11:29;7.53;;;2.45;;
60851;SDS011;48553;50.766;2.900;2023-09-19T18:14:30;8.68;;;2.40;;
60851;SDS011;48553;50.766;2.900;2023-09-19T18:17:32;10.65;;;2.65;;
60851;SDS011;48553;50.766;2.900;2023-09-19T18:20:36;8.23;;;2.60;;
60851;SDS011;48553;50.766;2.900;2023-09-19T18:23:39;8.85;;;2.63;;
60851;SDS011;48553;50.766;2.900;2023-09-19T18:26:40;7.30;;;2.28;;
60851;SDS011;48553;50.766;2.900;2023-09-19T18:29:41;9.48;;;2.30;;
60851;SDS011;48553;50.766;2.900;2023-09-19T18:32:45;8.38;;;2.25;;
60851;SDS011;48553;50.766;2.900;2023-09-19T18:35:45;5.93;;;2.22;;
60851;SDS011;48553;50.766;2.900;2023-09-19T18:38:46;6.47;;;2.42;;
60851;SDS011;48553;50.766;2.900;2023-09-19T18:41:47;6.90;;;2.22;;
60851;SDS011;48553;50.766;2.900;2023-09-19T18:44:49;9.40;;;2.47;;
60851;SDS011;48553;50.766;2.900;2023-09-19T18:47:49;10.80;;;2.45;;
60851;SDS011;48553;50.766;2.900;2023-09-19T18:50:50;9.93;;;2.42;;
60851;SDS011;48553;50.766;2.900;2023-09-19T18:53:51;12.43;;;2.70;;
60851;SDS011;48553;50.766;2.900;2023-09-19T18:56:51;9.25;;;2.38;;
60851;SDS011;48553;50.766;2.900;2023-09-19T18:59:52;8.68;;;2.63;;
60851;SDS011;48553;50.766;2.900;2023-09-19T19:02:52;8.57;;;2.42;;
60851;SDS011;48553;50.766;2.900;2023-09-19T19:05:53;6.53;;;2.40;;
60851;SDS011;48553;50.766;2.900;2023-09-19T19:08:53;9.00;;;2.33;;
60851;SDS011;48553;50.766;2.900;2023-09-19T19:11:54;7.57;;;2.38;;